Meteorología y climatología de Navarra
Datos de la estación - Meteo Navarra

Estación de Iñarbegi GN

Altitud 585 m.


Datos desde el 15/02/2020 hasta el 16/02/2020 en horario solar
Los datos son PROVISIONALES

Anterior Página 1 de 1 Siguiente Descargar: Formato para Excel 2000 o superior   Formato csv   Formato para OpenOffice Calc
Fecha Temperatura Humedad relativa Radiación global Insolación Precipitación Vel. viento 10 m Vel. viento 10 m Dir. viento 10 m
ºC % W/m² s l/m² m/s km/h º
15/02/2020 0:00 6.5 86 - - - - 0.0 - - - - - -
15/02/2020 0:10 5.9 89 - - - - 0.0 - - - - - -
15/02/2020 0:20 6.5 87 - - - - 0.0 - - - - - -
15/02/2020 0:30 7.1 84 - - - - 0.0 - - - - - -
15/02/2020 0:40 7.0 84 - - - - 0.0 - - - - - -
15/02/2020 0:50 6.8 84 - - - - 0.0 - - - - - -
15/02/2020 1:00 7.0 83 - - - - 0.0 - - - - - -
15/02/2020 1:10 7.1 82 - - - - 0.0 - - - - - -
15/02/2020 1:20 6.8 83 - - - - 0.0 - - - - - -
15/02/2020 1:30 6.4 84 - - - - 0.0 - - - - - -
15/02/2020 1:40 6.5 82 - - - - 0.0 - - - - - -
15/02/2020 1:50 6.6 81 - - - - 0.0 - - - - - -
15/02/2020 2:00 7.3 77 - - - - 0.0 - - - - - -
15/02/2020 2:10 7.0 77 - - - - 0.0 - - - - - -
15/02/2020 2:20 6.7 77 - - - - 0.0 - - - - - -
15/02/2020 2:30 7.1 76 - - - - 0.0 - - - - - -
15/02/2020 2:40 9.0 68 - - - - 0.0 - - - - - -
15/02/2020 2:50 8.1 72 - - - - 0.0 - - - - - -
15/02/2020 3:00 8.1 73 - - - - 0.0 - - - - - -
15/02/2020 3:10 7.9 74 - - - - 0.0 - - - - - -
15/02/2020 3:20 7.6 76 - - - - 0.0 - - - - - -
15/02/2020 3:30 8.0 73 - - - - 0.0 - - - - - -
15/02/2020 3:40 7.5 76 - - - - 0.0 - - - - - -
15/02/2020 3:50 7.3 77 - - - - 0.0 - - - - - -
15/02/2020 4:00 8.3 73 - - - - 0.0 - - - - - -
15/02/2020 4:10 9.8 67 - - - - 0.0 - - - - - -
15/02/2020 4:20 9.5 68 - - - - 0.0 - - - - - -
15/02/2020 4:30 11.3 63 - - - - 0.0 - - - - - -
15/02/2020 4:40 11.1 64 - - - - 0.0 - - - - - -
15/02/2020 4:50 10.6 67 - - - - 0.0 - - - - - -
15/02/2020 5:00 11.6 64 - - - - 0.0 - - - - - -
15/02/2020 5:10 11.9 63 - - - - 0.0 - - - - - -
15/02/2020 5:20 12.0 62 - - - - 0.0 - - - - - -
15/02/2020 5:30 12.1 62 - - - - 0.0 - - - - - -
15/02/2020 5:40 12.2 62 - - - - 0.0 - - - - - -
15/02/2020 5:50 12.0 62 - - - - 0.0 - - - - - -
15/02/2020 6:00 12.2 61 - - - - 0.0 - - - - - -
15/02/2020 6:10 12.3 60 - - - - 0.0 - - - - - -
15/02/2020 6:20 12.2 60 - - - - 0.0 - - - - - -
15/02/2020 6:30 12.1 60 - - - - 0.0 - - - - - -
15/02/2020 6:40 12.2 59 - - - - 0.0 - - - - - -
15/02/2020 6:50 12.2 59 - - - - 0.0 - - - - - -
15/02/2020 7:00 12.2 59 - - - - 0.0 - - - - - -
15/02/2020 7:10 12.1 60 - - - - 0.0 - - - - - -
15/02/2020 7:20 12.0 61 - - - - 0.0 - - - - - -
15/02/2020 7:30 11.9 61 - - - - 0.0 - - - - - -
15/02/2020 7:40 11.9 62 - - - - 0.0 - - - - - -
15/02/2020 7:50 11.8 63 - - - - 0.0 - - - - - -
15/02/2020 8:00 12.2 62 - - - - 0.0 - - - - - -
15/02/2020 8:10 12.5 61 - - - - 0.0 - - - - - -
15/02/2020 8:20 12.8 60 - - - - 0.0 - - - - - -
15/02/2020 8:30 12.9 60 - - - - 0.0 - - - - - -
15/02/2020 8:40 13.0 59 - - - - 0.0 - - - - - -
15/02/2020 8:50 13.4 58 - - - - 0.0 - - - - - -
15/02/2020 9:00 13.5 59 - - - - 0.0 - - - - - -
15/02/2020 9:10 14.0 57 - - - - 0.0 - - - - - -
15/02/2020 9:20 14.2 56 - - - - 0.0 - - - - - -
15/02/2020 9:30 14.3 56 - - - - 0.0 - - - - - -
15/02/2020 9:40 14.6 56 - - - - 0.0 - - - - - -
15/02/2020 9:50 14.5 56 - - - - 0.0 - - - - - -
15/02/2020 10:00 14.5 56 - - - - 0.0 - - - - - -
15/02/2020 10:10 15.0 55 - - - - 0.0 - - - - - -
15/02/2020 10:20 15.3 54 - - - - 0.0 - - - - - -
15/02/2020 10:30 15.2 55 - - - - 0.0 - - - - - -
15/02/2020 10:40 15.4 53 - - - - 0.0 - - - - - -
15/02/2020 10:50 15.4 53 - - - - 0.0 - - - - - -
15/02/2020 11:00 15.7 52 - - - - 0.0 - - - - - -
15/02/2020 11:10 15.9 52 - - - - 0.0 - - - - - -
15/02/2020 11:20 15.8 52 - - - - 0.0 - - - - - -
15/02/2020 11:30 16.2 51 - - - - 0.0 - - - - - -
15/02/2020 11:40 16.1 50 - - - - 0.0 - - - - - -
15/02/2020 11:50 16.3 50 - - - - 0.0 - - - - - -
15/02/2020 12:00 16.2 50 - - - - 0.0 - - - - - -
15/02/2020 12:10 16.2 50 - - - - 0.0 - - - - - -
15/02/2020 12:20 16.4 49 - - - - 0.0 - - - - - -
15/02/2020 12:30 16.8 48 - - - - 0.0 - - - - - -
15/02/2020 12:40 16.9 45 - - - - 0.0 - - - - - -
15/02/2020 12:50 16.9 45 - - - - 0.0 - - - - - -
15/02/2020 13:00 17.4 45 - - - - 0.0 - - - - - -
15/02/2020 13:10 17.3 46 - - - - 0.0 - - - - - -
15/02/2020 13:20 16.8 48 - - - - 0.0 - - - - - -
15/02/2020 13:30 17.0 48 - - - - 0.0 - - - - - -
15/02/2020 13:40 17.3 46 - - - - 0.0 - - - - - -
15/02/2020 13:50 17.0 45 - - - - 0.0 - - - - - -
15/02/2020 14:00 16.3 46 - - - - 0.0 - - - - - -
15/02/2020 14:10 16.2 47 - - - - 0.0 - - - - - -
15/02/2020 14:20 16.3 47 - - - - 0.0 - - - - - -
15/02/2020 14:30 16.3 46 - - - - 0.0 - - - - - -
15/02/2020 14:40 16.3 47 - - - - 0.0 - - - - - -
15/02/2020 14:50 16.3 48 - - - - 0.0 - - - - - -
15/02/2020 15:00 16.1 49 - - - - 0.0 - - - - - -
15/02/2020 15:10 15.9 50 - - - - 0.0 - - - - - -
15/02/2020 15:20 15.8 50 - - - - 0.0 - - - - - -
15/02/2020 15:30 15.7 50 - - - - 0.0 - - - - - -
15/02/2020 15:40 15.6 51 - - - - 0.0 - - - - - -
15/02/2020 15:50 15.5 50 - - - - 0.0 - - - - - -
15/02/2020 16:00 15.5 49 - - - - 0.0 - - - - - -
15/02/2020 16:10 15.4 49 - - - - 0.0 - - - - - -
15/02/2020 16:20 15.3 50 - - - - 0.0 - - - - - -
15/02/2020 16:30 15.2 52 - - - - 0.0 - - - - - -
15/02/2020 16:40 15.0 51 - - - - 0.0 - - - - - -
15/02/2020 16:50 15.0 50 - - - - 0.0 - - - - - -
15/02/2020 17:00 15.0 50 - - - - 0.0 - - - - - -
15/02/2020 17:10 15.0 49 - - - - 0.0 - - - - - -
15/02/2020 17:20 14.9 49 - - - - 0.0 - - - - - -
15/02/2020 17:30 14.8 49 - - - - 0.0 - - - - - -
15/02/2020 17:40 14.8 49 - - - - 0.0 - - - - - -
15/02/2020 17:50 14.9 48 - - - - 0.0 - - - - - -
15/02/2020 18:00 14.9 49 - - - - 0.0 - - - - - -
15/02/2020 18:10 15.0 49 - - - - 0.0 - - - - - -
15/02/2020 18:20 15.1 49 - - - - 0.0 - - - - - -
15/02/2020 18:30 15.1 49 - - - - 0.0 - - - - - -
15/02/2020 18:40 15.2 48 - - - - 0.0 - - - - - -
15/02/2020 18:50 15.1 49 - - - - 0.0 - - - - - -
15/02/2020 19:00 14.9 49 - - - - 0.0 - - - - - -
15/02/2020 19:10 14.8 50 - - - - 0.0 - - - - - -
15/02/2020 19:20 14.5 51 - - - - 0.0 - - - - - -
15/02/2020 19:30 14.6 51 - - - - 0.0 - - - - - -
15/02/2020 19:40 14.7 51 - - - - 0.0 - - - - - -
15/02/2020 19:50 14.6 52 - - - - 0.0 - - - - - -
15/02/2020 20:00 14.7 53 - - - - 0.0 - - - - - -
15/02/2020 20:10 14.6 54 - - - - 0.0 - - - - - -
15/02/2020 20:20 14.7 54 - - - - 0.0 - - - - - -
15/02/2020 20:30 14.7 54 - - - - 0.0 - - - - - -
15/02/2020 20:40 14.6 54 - - - - 0.0 - - - - - -
15/02/2020 20:50 14.6 54 - - - - 0.0 - - - - - -
15/02/2020 21:00 14.5 55 - - - - 0.0 - - - - - -
15/02/2020 21:10 14.6 55 - - - - 0.0 - - - - - -
15/02/2020 21:20 14.6 54 - - - - 0.0 - - - - - -
15/02/2020 21:30 14.2 55 - - - - 0.0 - - - - - -
15/02/2020 21:40 14.4 54 - - - - 0.0 - - - - - -
15/02/2020 21:50 14.5 53 - - - - 0.0 - - - - - -
15/02/2020 22:00 14.5 53 - - - - 0.0 - - - - - -
15/02/2020 22:10 14.4 52 - - - - 0.0 - - - - - -
15/02/2020 22:20 14.7 50 - - - - 0.0 - - - - - -
15/02/2020 22:30 14.7 50 - - - - 0.0 - - - - - -
15/02/2020 22:40 14.5 51 - - - - 0.0 - - - - - -
15/02/2020 22:50 14.3 52 - - - - 0.0 - - - - - -
15/02/2020 23:00 14.3 52 - - - - 0.0 - - - - - -
15/02/2020 23:10 14.3 52 - - - - 0.0 - - - - - -
15/02/2020 23:20 14.1 53 - - - - 0.0 - - - - - -
15/02/2020 23:30 14.2 51 - - - - 0.0 - - - - - -
15/02/2020 23:40 14.4 50 - - - - 0.0 - - - - - -
15/02/2020 23:50 14.1 52 - - - - 0.0 - - - - - -
Anterior Página 1 de 1 Siguiente

NOTA: Tipo de datos según el color:
   - Valores diarios o 10 minutos correctos
   - Valores diarios calculados a partir de un número de datos 10 minutos menor que 144 y mayor que 120, o de un número de datos semihorarios menor que 48 y mayor que 40 (caso de las estaciones de INTIA y del Ministerio)
   - Valores diez minutos estimados


Contacto        Enlaces        Aviso legal